Terminal Aerodrome Forecast
Issued by NWS

Home | Current Version | Previous Version | Text Only | Print | Product List | Glossary Off
Versions: 1 2 3 4 5 6 7 8 9 10 11 12 13 14 15 16 17 18 19 20 21 22

000
FTUS43 KICT 191140
TAFSLN
TAF
KSLN 191140Z 1912/2012 34022G30KT P6SM OVC013
     FM191400 34017G22KT P6SM OVC017
     FM191700 33013KT P6SM SCT020 BKN100
     FM192000 34009KT P6SM OVC022=

USA.gov is the U.S. government's official web portal to all federal, state and local government web resources and services.